Hlavní strana
METAR-TAF:

METAR-TAF

Letiště :

Baldwin_County_Airport

Milledgeville, Georgie, Spojené státy americké

zeměpisná šířka: 33-09-15N, zeměpisná délka: 083-14-26W, výška: 117 m

Aktuální stav počasí

Zpráva byla vytvořena před 10 minutami, v 06:55 UTC
Bezvětří
Teplota 16°C
Vlhkost vzduchu 100%
Tlak 1020 hPa
Viditelnost: 2.8 km
Polojasno ve výšce 400 ft
Oblačno až skoro zataženo ve výšce 2600 ft
Zataženo ve výšce 4600 ft
déšť

METAR: KMLJ 190655Z AUTO 00000KT 1 3/4SM RA SCT004 BKN026 OVC046 16/16 A3012 RMK AO2

Čas: 02:05 (07:05 UTC)


TAF: chybějící

Stav a předpovědi počasí z více než 4 000 letišť (zprávy METAR a TAF).

Červené a žluté tečky na mapě představují dostupné meteorologické stanice.

Když kurzor umístíte na tečku, zobrazí se název stanice.

Pak kliknutím zobrazíte stav a předpověď počasí.

Chcete-li změnit mapu, kliknutím na zelené tlačítko se znaménkem +mapu přiblížíte, kliknutím na zelené tlačítko se znaménkem – mapu oddálíte a kliknutím na zelené šipky přejdete na sousední mapy.


METAR-TAF: